createdAt,value
2019-02-14T00:00:45.782Z,103655.39
2019-02-14T00:05:49.585Z,103657.62
2019-02-14T00:10:52.011Z,103663.86
2019-02-14T00:15:54.991Z,103657.11
2019-02-14T00:20:57.913Z,103654.66
2019-02-14T00:26:00.189Z,103643.91
2019-02-14T00:31:04.771Z,103640.64
2019-02-14T00:36:10.062Z,103640.58
2019-02-14T00:41:18.136Z,103630.35
2019-02-14T00:46:23.213Z,103629.43
2019-02-14T00:51:25.411Z,103636.08
2019-02-14T00:56:28.467Z,103639.53
2019-02-14T01:01:30.760Z,103630.97
2019-02-14T01:06:34.401Z,103626.70
2019-02-14T01:11:37.791Z,103622.95
2019-02-14T01:16:41.277Z,103629.00
2019-02-14T01:21:44.789Z,103623.53
2019-02-14T01:26:50.362Z,103616.64
2019-02-14T01:31:57.691Z,103609.70
2019-02-14T01:37:00.265Z,103614.26
2019-02-14T01:42:05.849Z,103611.45
2019-02-14T01:47:10.867Z,103610.52
2019-02-14T01:52:13.271Z,103614.34
2019-02-14T01:57:18.328Z,103622.41
2019-02-14T02:02:23.072Z,103624.92
2019-02-14T02:07:28.041Z,103617.23
2019-02-14T02:12:30.713Z,103600.84
2019-02-14T02:17:34.233Z,103600.84
2019-02-14T02:22:36.827Z,103604.64
2019-02-14T02:27:39.122Z,103609.48
2019-02-14T02:32:41.529Z,103609.80
2019-02-14T02:37:43.705Z,103609.20
2019-02-14T02:42:46.318Z,103607.82
2019-02-14T02:47:48.902Z,103605.69
2019-02-14T02:52:52.733Z,103603.98
2019-02-14T02:57:54.962Z,103606.61
2019-02-14T03:02:57.712Z,103602.89
2019-02-14T03:07:59.911Z,103616.23
2019-02-14T03:13:05.243Z,103619.53
2019-02-14T03:18:07.245Z,103618.27
2019-02-14T03:23:09.814Z,103622.52
2019-02-14T03:28:12.411Z,103617.13
2019-02-14T03:33:14.849Z,103621.54
2019-02-14T03:38:17.301Z,103627.83
2019-02-14T03:43:21.740Z,103614.73
2019-02-14T03:48:24.021Z,103624.67
2019-02-14T03:53:26.746Z,103629.59
2019-02-14T03:58:29.530Z,103625.06
2019-02-14T04:03:34.882Z,103626.31
2019-02-14T04:08:37.196Z,103633.17
2019-02-14T04:13:39.599Z,103624.39
2019-02-14T04:18:45.122Z,103622.98
2019-02-14T04:23:47.723Z,103621.89
2019-02-14T04:28:50.207Z,103626.06
2019-02-14T04:33:57.205Z,103624.39
2019-02-14T04:39:02.263Z,103622.05
2019-02-14T04:44:04.861Z,103626.31
2019-02-14T04:49:07.147Z,103636.61
2019-02-14T04:54:09.998Z,103640.26
2019-02-14T04:59:15.420Z,103638.80
2019-02-14T05:04:18.942Z,103640.56
2019-02-14T05:09:21.229Z,103641.08
2019-02-14T05:14:26.148Z,103645.97
2019-02-14T05:19:28.555Z,103655.27
2019-02-14T05:24:31.163Z,103657.64
2019-02-14T05:29:33.439Z,103658.11
2019-02-14T05:34:36.153Z,103670.20
2019-02-14T05:39:42.010Z,103668.19
2019-02-14T05:44:44.660Z,103672.47
2019-02-14T05:49:48.735Z,103675.97
2019-02-14T05:54:51.417Z,103667.30
2019-02-14T05:59:53.643Z,103661.09
2019-02-14T06:04:55.950Z,103672.98
2019-02-14T06:09:58.166Z,103673.97
2019-02-14T06:15:02.513Z,103671.11
2019-02-14T06:20:07.386Z,103691.76
2019-02-14T06:25:09.655Z,103703.59
2019-02-14T06:30:12.396Z,103715.61
2019-02-14T06:35:16.082Z,103714.83
2019-02-14T06:40:22.366Z,103707.48
2019-02-14T06:45:24.812Z,103724.33
2019-02-14T06:50:34.578Z,103719.00
2019-02-14T06:55:34.282Z,103717.14
2019-02-14T07:00:36.703Z,103733.88
2019-02-14T07:05:38.724Z,103727.39
2019-02-14T07:10:42.572Z,103729.31
2019-02-14T07:15:47.917Z,103731.89
2019-02-14T07:20:52.095Z,103732.34
2019-02-14T07:25:57.323Z,103719.28
2019-02-14T07:31:01.824Z,103734.31
2019-02-14T07:36:04.748Z,103727.13
2019-02-14T07:41:07.034Z,103739.30
2019-02-14T07:46:11.763Z,103752.20
2019-02-14T07:51:14.066Z,103757.80
2019-02-14T07:56:16.675Z,103758.35
2019-02-14T08:01:19.727Z,103742.87
2019-02-14T08:06:22.178Z,103736.56
2019-02-14T08:11:25.752Z,103736.42
2019-02-14T08:16:30.075Z,103732.33
2019-02-14T08:21:32.413Z,103730.57
2019-02-14T08:26:36.239Z,103735.72
2019-02-14T08:31:38.514Z,103745.37
2019-02-14T08:36:43.835Z,103753.08
2019-02-14T08:41:45.926Z,103755.20
2019-02-14T08:46:48.452Z,103752.11
2019-02-14T08:51:55.928Z,103752.46
2019-02-14T08:56:58.214Z,103748.73
2019-02-14T09:02:02.550Z,103751.38
2019-02-14T09:07:04.983Z,103741.20
2019-02-14T09:12:09.174Z,103739.02
2019-02-14T09:17:11.683Z,103735.75
2019-02-14T09:22:13.856Z,103731.01
2019-02-14T09:27:16.231Z,103725.72
2019-02-14T09:32:22.356Z,103733.84
2019-02-14T09:37:25.176Z,103737.44
2019-02-14T09:42:29.401Z,103730.45
2019-02-14T09:47:35.262Z,103718.30
2019-02-14T09:52:37.543Z,103722.23
2019-02-14T09:57:39.846Z,103721.82
2019-02-14T10:02:41.890Z,103714.66
2019-02-14T10:07:44.121Z,103718.20
2019-02-14T10:12:46.538Z,103723.73
2019-02-14T10:17:50.528Z,103724.80
2019-02-14T10:22:52.770Z,103724.18
2019-02-14T10:27:59.341Z,103721.50
2019-02-14T10:33:01.762Z,103722.23
2019-02-14T10:38:09.860Z,103719.50
2019-02-14T10:43:12.106Z,103701.99
2019-02-14T10:48:14.298Z,103710.66
2019-02-14T10:53:19.450Z,103716.67
2019-02-14T10:58:22.798Z,103726.81
2019-02-14T11:03:25.435Z,103723.33
2019-02-14T11:08:31.646Z,103728.87
2019-02-14T11:13:31.947Z,103731.90
2019-02-14T11:18:34.261Z,103728.52
2019-02-14T11:23:36.680Z,103731.98
2019-02-14T11:28:38.774Z,103731.95
2019-02-14T11:33:43.592Z,103723.09
2019-02-14T11:38:45.608Z,103737.63
2019-02-14T11:43:50.630Z,103737.94
2019-02-14T11:48:55.838Z,103728.36
2019-02-14T11:53:58.566Z,103718.35
2019-02-14T11:59:01.181Z,103707.70
2019-02-14T12:04:03.599Z,103708.87
2019-02-14T12:09:06.775Z,103700.50
2019-02-14T12:14:10.168Z,103692.45
2019-02-14T12:19:17.630Z,103688.94
2019-02-14T12:24:22.474Z,103683.55
2019-02-14T12:29:24.567Z,103691.39
2019-02-14T12:34:26.903Z,103671.66
2019-02-14T12:39:29.139Z,103664.91
2019-02-14T12:44:35.016Z,103650.11
2019-02-14T12:49:37.403Z,103652.09
2019-02-14T12:54:39.851Z,103647.53
2019-02-14T12:59:42.151Z,103644.28
2019-02-14T13:04:44.147Z,103637.44
2019-02-14T13:09:46.476Z,103629.60
2019-02-14T13:14:48.681Z,103619.64
2019-02-14T13:19:50.984Z,103619.98
2019-02-14T13:24:53.197Z,103621.62
2019-02-14T13:29:55.498Z,103620.59
2019-02-14T13:34:58.051Z,103621.23
2019-02-14T13:40:00.412Z,103605.99
2019-02-14T13:45:03.052Z,103600.59
2019-02-14T13:50:05.993Z,103595.02
2019-02-14T13:55:08.622Z,103583.28
2019-02-14T14:00:14.565Z,103585.05
2019-02-14T14:05:18.587Z,103597.55
2019-02-14T14:10:22.795Z,103588.98
2019-02-14T14:15:25.564Z,103589.62
2019-02-14T14:20:29.078Z,103584.14
2019-02-14T14:25:31.798Z,103583.34
2019-02-14T14:30:36.540Z,103567.97
2019-02-14T14:35:40.392Z,103570.38
2019-02-14T14:40:42.674Z,103561.22
2019-02-14T14:46:08.282Z,103559.09
2019-02-14T14:51:12.120Z,103553.55
2019-02-14T14:56:14.792Z,103548.53
2019-02-14T15:01:17.314Z,103549.89
2019-02-14T15:30:51.654Z,103524.70
2019-02-14T15:35:57.143Z,103505.47
2019-02-14T15:41:01.734Z,103507.89
2019-02-14T15:46:09.865Z,103506.08
2019-02-14T15:51:15.668Z,103513.45
2019-02-14T15:56:18.277Z,103504.92
2019-02-14T16:01:20.293Z,103506.50
2019-02-14T16:06:22.764Z,103510.16
2019-02-14T16:11:25.106Z,103500.11
2019-02-14T18:35:59.351Z,103521.65
2019-02-14T18:41:14.316Z,103522.55
2019-02-14T18:46:29.386Z,103526.49
2019-02-14T18:51:44.490Z,103532.13
2019-02-14T18:57:00.122Z,103532.50
2019-02-14T19:07:17.894Z,103527.31
2019-02-14T19:22:52.188Z,103517.41
2019-02-14T19:28:00.976Z,103512.21
2019-02-14T19:33:13.788Z,103522.98
2019-02-14T19:38:29.931Z,103516.77
2019-02-14T19:43:39.280Z,103522.90
2019-02-14T19:48:48.287Z,103513.97
2019-02-14T19:53:57.073Z,103511.55
2019-02-14T19:59:07.099Z,103503.87
2019-02-14T20:04:20.013Z,103511.31
2019-02-14T20:09:36.057Z,103512.66
2019-02-14T20:14:44.856Z,103510.12
2019-02-14T20:19:55.182Z,103512.67
2019-02-14T20:25:04.324Z,103512.69
2019-02-14T20:30:13.478Z,103505.03
2019-02-14T20:35:23.566Z,103504.81
2019-02-14T20:40:38.623Z,103507.73
2019-02-14T20:45:47.439Z,103498.53
2019-02-14T20:50:58.548Z,103497.89
2019-02-14T20:56:09.387Z,103490.24
2019-02-14T21:01:18.310Z,103490.36
2019-02-14T21:06:27.294Z,103484.30
2019-02-14T21:11:35.916Z,103480.86
2019-02-14T21:16:44.947Z,103484.75
2019-02-14T21:21:54.150Z,103481.66
2019-02-14T21:27:03.142Z,103478.09
2019-02-14T21:32:12.161Z,103475.55
2019-02-14T21:37:27.280Z,103473.14
2019-02-14T21:42:35.452Z,103469.05
2019-02-14T21:47:43.597Z,103460.76
2019-02-14T21:52:52.539Z,103473.64
2019-02-14T21:58:04.477Z,103464.44
2019-02-14T22:03:12.620Z,103462.31
2019-02-14T22:08:24.785Z,103463.10
2019-02-14T22:13:38.725Z,103457.80
2019-02-14T22:18:53.777Z,103451.77
2019-02-14T22:24:08.852Z,103449.23
2019-02-14T22:29:18.714Z,103451.30
2019-02-14T22:34:27.738Z,103440.52
2019-02-14T22:39:44.135Z,103447.42
2019-02-14T22:44:53.128Z,103444.84
2019-02-14T22:50:02.388Z,103450.50
2019-02-14T22:55:14.708Z,103446.00
2019-02-14T23:00:52.135Z,103452.55
2019-02-14T23:06:01.070Z,103454.06
2019-02-14T23:11:10.276Z,103446.92
2019-02-14T23:16:18.931Z,103439.09
2019-02-14T23:21:34.051Z,103445.38
2019-02-14T23:26:48.287Z,103450.41
2019-02-14T23:31:57.138Z,103444.88
2019-02-14T23:37:12.931Z,103455.92
2019-02-14T23:42:28.398Z,103453.61
2019-02-14T23:47:37.385Z,103454.03
2019-02-14T23:52:46.552Z,103453.27
2019-02-14T23:57:55.564Z,103449.75
